Time;durP1;ratioP1;P1;durP2;ratioP2;P2;SDS_P1;SDS_P2;PMS_P1;PMS_P2;Temp;Humidity;BMP_temperature;BMP_pressure;BME280_temperature;BME280_humidity;BME280_pressure;Samples;Min_cycle;Max_cycle;Signal;HPM_P1;HPM_P2
2023/01/26 00:02:13;;;;;;;;;;;4.10;93.40;;;4.56;61.66;99295.59;5027964;28;113459;-70
2023/01/26 00:04:40;;;;;;;;;;;4.10;93.40;;;4.56;61.62;99290.13;5038352;27;124367;-71
2023/01/26 00:07:06;;;;;;;;;;;5.20;93.90;;;4.58;61.24;99299.75;5029612;28;125318;-70
2023/01/26 00:09:32;;;;;;;;;;;4.10;93.50;;;4.58;62.11;99287.97;5021675;28;114376;-70
2023/01/26 00:11:58;;;;;;;;;;;4.10;93.50;;;4.58;61.49;99282.50;5032370;28;113657;-70
2023/01/26 00:14:25;;;;;;;;;;;4.10;93.50;;;4.57;61.64;99278.94;5019585;28;124233;-70
2023/01/26 00:16:52;;;;;;;;;;;4.10;93.50;;;4.53;61.74;99291.47;5026048;28;123865;-70
2023/01/26 00:19:18;;;;;;;;;;;4.00;93.50;;;4.50;61.39;99269.31;5023658;28;114058;-70
2023/01/26 00:21:45;;;;;;;;;;;4.00;93.50;;;4.48;62.26;99263.25;5027892;28;113758;-70
2023/01/26 00:24:11;;;;;;;;;;;4.00;93.50;;;4.44;61.49;99268.44;5002041;28;124076;-70
2023/01/26 00:26:37;;;;;;;;;;;4.00;93.50;;;4.40;61.80;99259.91;5004818;28;121686;-71
2023/01/26 00:29:03;;;;;;;;;;;4.00;93.50;;;4.39;62.22;99254.72;4987365;28;113799;-71
2023/01/26 00:31:30;;;;;;;;;;;4.00;93.50;;;4.38;61.51;99256.63;5020280;28;113206;-70
2023/01/26 00:33:56;;;;;;;;;;;3.90;93.50;;;4.37;62.00;99249.50;5031055;28;124367;-70
2023/01/26 00:36:23;;;;;;;;;;;3.90;93.60;;;4.36;61.95;99250.59;5001140;28;124011;-70
2023/01/26 00:38:49;;;;;;;;;;;3.90;93.70;;;4.32;62.00;99241.22;5022699;28;116034;-70
2023/01/26 00:44:00;;;;;;;;;;;3.80;93.70;;;4.32;61.84;99230.28;5031570;28;125324;-70
2023/01/26 00:46:27;;;;;;;;;;;3.80;93.70;;;4.33;61.98;99234.69;5012807;28;124047;-69
2023/01/26 00:48:53;;;;;;;;;;;3.80;93.70;;;4.36;62.55;99231.44;5028496;28;114927;-69
2023/01/26 00:51:19;;;;;;;;;;;3.90;93.80;;;4.38;62.02;99222.97;5028860;28;114966;-70
2023/01/26 00:53:45;;;;;;;;;;;3.90;93.80;;;4.39;61.94;99228.16;5021907;28;124013;-70
2023/01/26 00:56:13;;;;;;;;;;;3.90;93.80;;;4.43;62.19;99229.31;5031647;28;123683;-70
2023/01/26 00:58:39;;;;;;;;;;;3.90;93.80;;;4.45;62.64;99220.81;5025684;28;114504;-70
2023/01/26 01:01:07;;;;;;;;;;;3.20;93.50;;;4.46;62.37;99218.91;5004839;28;113478;-70
2023/01/26 01:03:33;;;;;;;;;;;3.90;93.80;;;4.48;61.98;99214.81;5022679;28;124240;-70
2023/01/26 01:06:01;;;;;;;;;;;4.00;93.80;;;4.51;61.97;99214.31;5026951;28;123779;-70
2023/01/26 01:08:27;;;;;;;;;;;4.00;93.80;;;4.53;62.55;99214.88;5004259;28;113441;-70
2023/01/26 01:11:04;;;;;;;;;;;4.00;93.80;;;4.57;62.55;99223.41;5027166;28;113679;-70
2023/01/26 01:13:31;;;;;;;;;;;4.10;93.80;;;4.51;62.39;99219.78;5007010;28;124772;-70
2023/01/26 01:15:57;;;;;;;;;;;4.00;93.70;;;4.49;62.23;99218.41;4992388;28;123490;-70
2023/01/26 01:18:23;;;;;;;;;;;4.00;93.70;;;4.47;61.72;99223.31;5027652;28;114319;-70
2023/01/26 01:20:49;;;;;;;;;;;4.00;93.70;;;4.46;62.07;99216.19;5028108;28;113795;-70
2023/01/26 01:23:16;;;;;;;;;;;4.00;93.80;;;4.48;62.14;99217.56;4995000;28;122966;-70
2023/01/26 01:25:42;;;;;;;;;;;4.00;93.80;;;4.51;62.12;99221.69;5011387;28;123830;-70
2023/01/26 01:28:08;;;;;;;;;;;4.00;93.80;;;4.53;62.22;99220.34;4995017;28;114270;-70
2023/01/26 01:30:36;;;;;;;;;;;4.00;93.80;;;4.55;62.52;99215.44;5028082;28;114866;-70
2023/01/26 01:33:03;;;;;;;;;;;4.10;93.80;;;4.53;62.03;99216.78;5017328;28;124259;-70
2023/01/26 01:35:29;;;;;;;;;;;4.00;93.80;;;4.51;62.05;99210.75;4995448;28;123547;-70
2023/01/26 01:37:55;;;;;;;;;;;4.00;93.80;;;4.50;61.65;99196.25;5026755;28;114516;-70
2023/01/26 01:40:22;;;;;;;;;;;4.00;93.80;;;4.50;62.41;99209.94;4999892;28;113745;-69
2023/01/26 01:42:48;;;;;;;;;;;4.00;93.70;;;4.52;62.25;99206.94;5013952;28;124529;-69
2023/01/26 01:45:36;;;;;;;;;;;4.80;94.10;;;4.56;62.52;99202.56;5026900;28;123882;-69
2023/01/26 01:48:04;;;;;;;;;;;4.00;93.80;;;4.52;61.72;99196.00;5012167;28;115381;-70
2023/01/26 01:50:35;;;;;;;;;;;4.00;93.70;;;4.53;61.83;99197.63;5010402;28;113697;-70
2023/01/26 01:53:01;;;;;;;;;;;4.00;93.80;;;4.50;61.72;99187.22;5016654;28;123875;-71
2023/01/26 01:55:28;;;;;;;;;;;4.00;93.70;;;4.50;62.38;99189.94;5016670;28;123719;-71
2023/01/26 01:57:59;;;;;;;;;;;4.00;93.70;;;4.46;62.68;99192.41;5021687;28;114405;-71
2023/01/26 02:00:25;;;;;;;;;;;4.00;93.70;;;4.45;62.55;99198.13;4984585;28;114803;-70
2023/01/26 02:03:15;;;;;;;;;;;4.00;93.70;;;4.42;62.59;99196.72;5025389;28;124160;-70
2023/01/26 02:06:00;;;;;;;;;;;4.00;93.80;;;4.41;61.95;99198.66;4998939;28;123133;-71
2023/01/26 02:08:38;;;;;;;;;;;3.90;93.80;;;4.40;62.25;99185.22;5031199;28;115001;-71
2023/01/26 02:11:10;;;;;;;;;;;3.90;93.80;;;4.38;62.49;99177.28;5017070;28;112940;-71
2023/01/26 02:13:37;;;;;;;;;;;3.90;93.80;;;4.36;62.63;99174.00;4989720;28;123223;-71
2023/01/26 02:16:04;;;;;;;;;;;3.90;93.80;;;4.37;62.36;99178.38;5010432;28;123312;-71
2023/01/26 02:18:30;;;;;;;;;;;3.90;93.80;;;4.39;62.54;99183.59;5023897;28;115625;-71
2023/01/26 02:21:02;;;;;;;;;;;3.90;93.90;;;4.40;62.28;99172.38;5024762;28;114967;-70
2023/01/26 02:23:47;;;;;;;;;;;3.90;93.90;;;4.41;62.49;99168.56;5011884;28;123498;-70
2023/01/26 02:26:19;;;;;;;;;;;3.90;93.80;;;4.35;62.22;99169.63;5024373;28;124339;-71
2023/01/26 02:28:46;;;;;;;;;;;3.90;93.80;;;4.32;61.95;99167.38;5022763;28;115076;-70
2023/01/26 02:31:13;;;;;;;;;;;3.90;93.80;;;4.32;62.41;99167.38;5027842;28;113771;-71
2023/01/26 02:33:40;;;;;;;;;;;3.90;93.90;;;4.34;62.54;99172.59;4998644;28;123159;-70
2023/01/26 02:36:09;;;;;;;;;;;3.90;93.90;;;4.34;61.96;99165.22;5016297;28;123916;-70
2023/01/26 02:38:40;;;;;;;;;;;3.90;93.90;;;4.33;62.11;99165.50;4985847;28;113305;-70
2023/01/26 02:41:09;;;;;;;;;;;3.80;93.90;;;4.33;62.55;99165.50;5010346;28;113771;-71
2023/01/26 02:43:36;;;;;;;;;;;3.90;93.90;;;4.33;62.77;99168.22;5004612;28;123155;-70
2023/01/26 02:46:02;;;;;;;;;;;3.80;93.90;;;4.29;62.26;99156.97;5018557;28;123715;-70
2023/01/26 02:51:14;;;;;;;;;;;3.80;94.10;;;4.16;62.65;99157.41;5024648;28;114603;-70
2023/01/26 02:53:40;;;;;;;;;;;3.60;94.20;;;4.10;62.83;99158.47;5012198;28;124079;-71
2023/01/26 02:56:06;;;;;;;;;;;3.50;94.20;;;4.05;63.60;99152.97;4999853;28;123292;-70
2023/01/26 02:58:33;;;;;;;;;;;3.50;94.30;;;4.04;63.90;99157.59;5028180;28;114707;-70
2023/01/26 03:00:59;;;;;;;;;;;3.50;94.30;;;4.01;63.27;99149.13;5005172;28;113143;-70
2023/01/26 03:03:40;;;;;;;;;;;3.50;94.40;;;4.00;62.99;99151.00;5033588;28;124756;-70
2023/01/26 03:06:10;;;;;;;;;;;3.50;94.50;;;3.98;63.43;99148.53;5033214;28;124550;-71
2023/01/26 03:08:37;;;;;;;;;;;3.40;94.50;;;3.93;63.68;99151.22;5001678;28;115304;-70
2023/01/26 03:11:05;;;;;;;;;;;3.40;94.60;;;3.89;63.72;99154.72;5018991;28;115351;-71
2023/01/26 03:13:31;;;;;;;;;;;3.40;94.60;;;3.86;64.29;99139.69;4992102;28;123204;-71
2023/01/26 03:16:05;;;;;;;;;;;3.40;94.70;;;3.85;63.52;99143.50;5007462;28;125200;-70
2023/01/26 03:27:26;;;;;;;;;;;3.20;94.90;;;3.79;63.67;99128.16;5019982;28;127050;-70
2023/01/26 03:29:56;;;;;;;;;;;3.30;94.90;;;3.80;64.67;99124.34;5026832;28;114814;-70
2023/01/26 03:32:23;;;;;;;;;;;3.30;94.90;;;3.83;64.26;99112.06;5012792;28;113890;-70
2023/01/26 03:34:49;;;;;;;;;;;3.30;94.90;;;3.84;64.63;99109.06;4996826;28;122978;-70
2023/01/26 03:37:20;;;;;;;;;;;3.30;94.80;;;3.84;63.74;99109.06;5024208;28;123911;-72
2023/01/26 03:56:31;;;;;;;;;;;3.40;94.70;;;3.82;64.05;99113.97;5025629;28;125151;-70
2023/01/26 03:59:08;;;;;;;;;;;3.40;94.70;;;3.83;63.83;99118.34;5023748;28;124347;-70
2023/01/26 04:01:37;;;;;;;;;;;3.40;94.70;;;3.84;63.59;99119.16;4993134;28;114656;-70
2023/01/26 04:09:36;;;;;;;;;;;3.40;94.60;;;3.86;63.61;99117.00;5031270;28;124797;-70
2023/01/26 04:12:03;;;;;;;;;;;3.40;94.60;;;3.86;63.71;99120.53;4983026;28;115152;-70
2023/01/26 04:22:44;;;;;;;;;;;3.40;94.60;;;3.84;64.04;99109.06;5007364;28;115385;-71
2023/01/26 04:25:13;;;;;;;;;;;3.40;94.60;;;3.83;63.47;99112.06;5025089;28;113847;-71
2023/01/26 04:27:40;;;;;;;;;;;3.40;94.60;;;3.84;64.05;99117.28;4996216;28;124903;-70
2023/01/26 04:30:09;;;;;;;;;;;3.80;94.80;;;3.87;64.27;99124.09;5010681;28;123964;-70
2023/01/26 04:32:36;;;;;;;;;;;3.40;94.70;;;3.92;64.18;99121.41;5013271;28;114129;-71
2023/01/26 04:35:04;;;;;;;;;;;3.40;94.70;;;3.93;63.73;99112.97;5028635;28;113766;-70
2023/01/26 04:37:30;;;;;;;;;;;3.40;94.70;;;3.95;63.59;99108.06;5013605;28;124353;-70
2023/01/26 04:39:58;;;;;;;;;;;3.40;94.70;;;3.98;63.70;99103.97;5000934;28;123932;-70
2023/01/26 04:42:24;;;;;;;;;;;3.40;94.70;;;3.98;63.51;99099.34;5028793;28;114181;-70
2023/01/26 04:44:51;;;;;;;;;;;3.50;94.70;;;3.97;63.83;99094.94;5029079;28;113731;-70
2023/01/26 04:47:18;;;;;;;;;;;3.50;94.70;;;3.91;63.83;99101.47;4993049;28;123264;-70
2023/01/26 04:49:45;;;;;;;;;;;3.30;94.60;;;3.85;63.76;99097.03;5010828;28;124973;-69
2023/01/26 04:52:11;;;;;;;;;;;3.30;94.70;;;3.81;63.80;99093.16;5009398;28;115228;-70
2023/01/26 04:54:38;;;;;;;;;;;3.30;94.80;;;3.75;63.97;99094.22;5012429;28;113972;-70
2023/01/26 04:57:05;;;;;;;;;;;3.20;94.80;;;3.73;64.19;99097.22;4989432;28;124110;-71
2023/01/26 04:59:31;;;;;;;;;;;3.20;94.80;;;3.66;64.32;99090.34;5025278;28;123997;-68
2023/01/26 05:01:59;;;;;;;;;;;3.10;94.80;;;3.61;64.48;99087.56;5013337;28;114467;-69
2023/01/26 05:04:25;;;;;;;;;;;3.10;94.90;;;3.54;64.40;99090.47;5010964;28;113955;-69
2023/01/26 05:06:51;;;;;;;;;;;3.00;95.00;;;3.50;64.31;99092.91;5007189;28;123743;-70
2023/01/26 05:09:17;;;;;;;;;;;2.90;95.00;;;3.48;64.45;99089.63;5023410;28;123852;-69
2023/01/26 05:11:44;;;;;;;;;;;2.90;95.10;;;3.47;64.72;99084.44;5012662;28;113322;-70
2023/01/26 05:14:10;;;;;;;;;;;2.90;95.10;;;3.46;64.36;99086.31;5015404;28;113830;-76
2023/01/26 05:16:36;;;;;;;;;;;2.90;95.10;;;3.46;64.73;99086.31;5026452;28;124209;-71
2023/01/26 05:19:02;;;;;;;;;;;2.90;95.10;;;3.45;64.41;99087.41;5014095;28;123713;-72
2023/01/26 05:21:29;;;;;;;;;;;2.90;95.10;;;3.41;64.48;99089.03;5028767;28;114454;-72
2023/01/26 05:23:55;;;;;;;;;;;2.80;95.20;;;3.45;64.43;99089.31;5021707;28;113690;-73
2023/01/26 05:26:22;;;;;;;;;;;2.90;95.20;;;3.49;64.50;99091.28;5011508;28;124217;-69
2023/01/26 05:28:48;;;;;;;;;;;3.00;95.20;;;3.52;64.84;99104.41;5008898;28;123985;-70
2023/01/26 05:31:15;;;;;;;;;;;3.00;95.20;;;3.53;64.56;99097.03;5019610;28;114029;-69
2023/01/26 05:33:41;;;;;;;;;;;3.00;95.10;;;3.53;64.79;99100.59;5027880;28;113715;-70
2023/01/26 05:36:07;;;;;;;;;;;3.00;95.00;;;3.52;64.12;99098.13;5025172;28;124188;-69
2023/01/26 05:38:34;;;;;;;;;;;3.00;95.00;;;3.50;64.24;99103.84;5025628;28;124543;-69
2023/01/26 05:41:00;;;;;;;;;;;3.00;95.00;;;3.48;64.60;99095.06;5025336;28;114621;-70
2023/01/26 05:43:27;;;;;;;;;;;3.00;94.90;;;3.50;64.26;99103.03;4992820;28;113729;-70
2023/01/26 05:45:53;;;;;;;;;;;3.00;95.00;;;3.50;64.35;99098.38;5009159;28;124649;-70
2023/01/26 05:48:20;;;;;;;;;;;3.00;94.90;;;3.51;64.50;99104.66;5027156;28;124380;-70
2023/01/26 05:50:46;;;;;;;;;;;3.00;94.90;;;3.48;64.10;99103.28;5027905;28;114721;-70
2023/01/26 05:53:12;;;;;;;;;;;3.00;94.90;;;3.44;64.33;99104.03;5028257;28;113413;-69
2023/01/26 05:55:39;;;;;;;;;;;2.90;94.90;;;3.40;64.60;99102.91;5028051;28;124190;-69
2023/01/26 05:58:08;;;;;;;;;;;2.80;94.90;;;3.37;64.23;99097.97;5010091;28;123906;-69
2023/01/26 06:00:35;;;;;;;;;;;2.80;95.00;;;3.38;64.83;99111.34;5028456;28;114469;-69
2023/01/26 06:03:01;;;;;;;;;;;2.80;95.00;;;3.39;64.73;99104.00;5029743;28;113657;-69
2023/01/26 06:05:27;;;;;;;;;;;2.90;95.00;;;3.37;64.74;99115.19;5016865;28;123337;-69
2023/01/26 06:07:54;;;;;;;;;;;2.90;94.90;;;3.37;65.00;99107.00;5031465;28;122941;-69
2023/01/26 06:10:20;;;;;;;;;;;2.90;95.00;;;3.42;64.75;99109.78;5016218;28;113302;-69
2023/01/26 06:12:46;;;;;;;;;;;2.90;95.00;;;3.42;63.75;99112.50;5031052;28;114529;-69
2023/01/26 06:15:14;;;;;;;;;;;2.90;94.90;;;3.40;64.13;99106.47;5028378;28;124063;-69
2023/01/26 06:17:40;;;;;;;;;;;2.80;94.90;;;3.35;64.43;99111.06;5012926;28;123433;-69
2023/01/26 06:20:07;;;;;;;;;;;2.80;95.00;;;3.30;64.85;99115.41;5013677;28;115070;-69
2023/01/26 06:22:33;;;;;;;;;;;2.80;95.20;;;3.28;65.38;99111.28;5018134;28;113546;-69
2023/01/26 06:24:59;;;;;;;;;;;2.70;95.60;;;3.31;66.25;99113.50;4983361;28;122062;-69
2023/01/26 06:27:27;;;;;;;;;;;2.80;96.00;;;3.36;66.09;99116.28;5033208;28;123979;-69
2023/01/26 06:29:53;;;;;;;;;;;2.80;96.10;;;3.45;66.15;99117.44;5032884;28;114588;-70
2023/01/26 06:32:19;;;;;;;;;;;2.90;96.00;;;3.51;65.56;99115.59;5036711;28;114996;-71
2023/01/26 06:34:46;;;;;;;;;;;2.90;95.80;;;3.51;65.39;99121.06;5032930;28;124040;-70
2023/01/26 06:37:12;;;;;;;;;;;2.90;95.70;;;3.51;65.95;99116.41;5017545;28;124331;-71
2023/01/26 06:39:41;;;;;;;;;;;3.00;95.60;;;3.52;64.94;99107.16;5034075;28;114929;-70
2023/01/26 06:42:08;;;;;;;;;;;3.00;95.50;;;3.52;64.53;99118.06;5016375;28;113931;-71
2023/01/26 06:44:34;;;;;;;;;;;3.00;95.30;;;3.51;64.76;99121.06;5026318;28;124474;-70
2023/01/26 06:47:01;;;;;;;;;;;3.00;95.20;;;3.49;64.37;99112.28;5026463;28;124005;-70
2023/01/26 06:49:27;;;;;;;;;;;2.90;95.10;;;3.44;64.14;99115.81;5016277;28;113493;-70
2023/01/26 06:51:58;;;;;;;;;;;2.90;95.10;;;3.41;64.05;99115.47;5031094;28;113804;-70
2023/01/26 06:54:25;;;;;;;;;;;2.90;95.10;;;3.39;64.13;99115.75;5009887;28;124636;-70
2023/01/26 06:56:51;;;;;;;;;;;2.80;95.00;;;3.41;64.39;99110.88;5015337;28;123940;-70
2023/01/26 06:59:17;;;;;;;;;;;2.90;95.10;;;3.40;63.95;99114.66;5023109;28;114504;-70
2023/01/26 07:01:47;;;;;;;;;;;2.90;95.00;;;3.39;64.40;99117.66;5030497;28;113916;-70
2023/01/26 07:04:14;;;;;;;;;;;2.80;95.00;;;3.35;64.34;99109.16;5027624;28;124822;-70
2023/01/26 07:06:41;;;;;;;;;;;2.80;95.00;;;3.32;64.36;99124.13;5028903;28;124326;-70
2023/01/26 07:09:07;;;;;;;;;;;2.80;95.10;;;3.30;64.17;99115.41;5025767;28;114541;-70
2023/01/26 07:11:33;;;;;;;;;;;2.80;95.00;;;3.29;64.58;99123.84;5031373;28;113817;-70
2023/01/26 07:14:00;;;;;;;;;;;2.70;94.90;;;3.28;64.27;99122.19;5009765;28;124484;-70
2023/01/26 07:16:26;;;;;;;;;;;2.80;95.00;;;3.30;64.27;99125.47;5013923;28;123837;-71
2023/01/26 07:18:56;;;;;;;;;;;2.80;95.00;;;3.31;64.28;99124.41;5015777;28;115190;-70
2023/01/26 07:21:22;;;;;;;;;;;2.80;95.00;;;3.31;63.86;99129.88;5030148;28;115001;-70
2023/01/26 07:23:49;;;;;;;;;;;2.80;94.90;;;3.32;64.26;99134.25;5014540;28;123079;-70
2023/01/26 07:26:16;;;;;;;;;;;2.80;94.90;;;3.29;64.03;99129.28;5012399;28;122715;-70
2023/01/26 07:28:43;;;;;;;;;;;2.70;94.80;;;3.28;64.08;99139.41;5014591;28;114212;-70
2023/01/26 07:31:10;;;;;;;;;;;2.70;94.90;;;3.30;63.95;99129.06;5015019;28;113464;-71
2023/01/26 07:33:36;;;;;;;;;;;2.80;94.90;;;3.31;63.96;99127.97;5014579;28;125338;-70
2023/01/26 07:36:03;;;;;;;;;;;2.80;94.90;;;3.34;63.94;99137.56;5011070;28;123827;-70
2023/01/26 07:38:29;;;;;;;;;;;2.80;94.80;;;3.37;64.25;99137.03;5030318;28;115104;-70
2023/01/26 07:40:55;;;;;;;;;;;2.80;94.80;;;3.41;64.30;99140.91;5027966;28;113925;-70
2023/01/26 07:43:23;;;;;;;;;;;2.90;94.80;;;3.46;63.59;99132.75;5020870;28;124232;-70
2023/01/26 07:45:51;;;;;;;;;;;2.90;94.80;;;3.49;63.80;99132.25;5019113;28;124997;-70
2023/01/26 07:48:19;;;;;;;;;;;3.00;94.80;;;3.52;63.50;99129.00;5027398;28;114641;-70
2023/01/26 07:50:46;;;;;;;;;;;3.00;94.60;;;3.51;63.77;99132.78;5009655;28;113909;-70
2023/01/26 07:53:18;;;;;;;;;;;3.00;94.60;;;3.50;63.88;99136.63;5012225;28;124255;-70
2023/01/26 07:55:45;;;;;;;;;;;3.00;94.60;;;3.48;63.34;99138.78;5009418;28;122839;-70
2023/01/26 07:58:11;;;;;;;;;;;2.90;94.50;;;3.44;63.63;99134.06;4991656;28;113230;-70
2023/01/26 08:00:38;;;;;;;;;;;2.90;94.50;;;3.44;63.45;99137.66;4996413;28;112544;-70
2023/01/26 08:03:05;;;;;;;;;;;2.90;94.60;;;3.47;63.72;99137.16;5029474;28;124962;-70
2023/01/26 08:05:31;;;;;;;;;;;3.00;94.60;;;3.49;63.54;99132.25;5025998;28;124312;-70
2023/01/26 08:08:01;;;;;;;;;;;3.00;94.50;;;3.53;63.25;99130.63;5028967;28;115158;-70
2023/01/26 08:10:30;;;;;;;;;;;3.10;94.50;;;3.54;63.18;99131.47;5031433;28;114844;-70
2023/01/26 08:13:00;;;;;;;;;;;3.10;94.50;;;3.55;63.41;99135.84;5032099;28;123994;-70
2023/01/26 08:15:27;;;;;;;;;;;3.00;94.40;;;3.56;63.95;99136.69;4996426;28;123313;-71
2023/01/26 08:17:53;;;;;;;;;;;3.00;94.70;;;3.60;64.18;99129.59;5011420;28;115089;-70
2023/01/26 08:20:20;;;;;;;;;;;3.10;95.20;;;3.63;64.37;99135.38;5011942;28;113393;-70
2023/01/26 08:22:46;;;;;;;;;;;3.10;95.10;;;3.65;63.85;99132.38;5020799;28;124816;-70
2023/01/26 08:25:13;;;;;;;;;;;3.10;95.00;;;3.69;64.11;99128.88;5028953;27;123937;-70
2023/01/26 08:27:39;;;;;;;;;;;3.10;95.10;;;3.75;64.24;99132.47;5029828;28;114531;-70
2023/01/26 08:30:06;;;;;;;;;;;3.20;95.10;;;3.77;63.54;99133.06;5029241;28;113481;-70
2023/01/26 08:32:32;;;;;;;;;;;3.20;94.80;;;3.79;63.64;99125.44;5012959;28;123927;-70
2023/01/26 08:34:59;;;;;;;;;;;3.20;94.70;;;3.77;63.04;99124.84;5026951;28;124553;-70
2023/01/26 08:37:25;;;;;;;;;;;3.20;94.40;;;3.71;62.48;99125.91;5023441;28;114501;-70
2023/01/26 08:39:51;;;;;;;;;;;3.20;94.10;;;3.68;62.57;99118.19;5010824;28;113589;-70
2023/01/26 08:42:18;;;;;;;;;;;3.10;94.20;;;3.70;62.76;99121.50;5010719;28;124051;-70
2023/01/26 08:44:44;;;;;;;;;;;3.20;94.20;;;3.72;62.43;99122.88;5013274;28;123231;-70
2023/01/26 08:47:10;;;;;;;;;;;3.20;94.10;;;3.72;62.35;99122.06;5030854;28;114469;-70
2023/01/26 08:49:36;;;;;;;;;;;3.20;93.90;;;3.71;61.98;99128.63;5026401;28;113786;-70
2023/01/26 08:52:03;;;;;;;;;;;3.20;94.00;;;3.74;62.57;99119.91;5014245;28;123626;-70
2023/01/26 08:54:29;;;;;;;;;;;3.80;94.20;;;3.79;62.14;99127.31;5008025;28;122897;-71
2023/01/26 08:56:56;;;;;;;;;;;3.20;93.90;;;3.80;62.24;99118.88;5023240;28;115308;-71
2023/01/26 08:59:23;;;;;;;;;;;3.30;93.80;;;3.78;62.05;99118.28;4998886;28;113908;-70
2023/01/26 09:01:49;;;;;;;;;;;3.30;93.80;;;3.77;62.55;99116.66;5005387;28;123490;-70
2023/01/26 09:04:15;;;;;;;;;;;3.30;93.80;;;3.78;61.66;99123.75;5011876;28;122962;-70
2023/01/26 09:06:42;;;;;;;;;;;3.30;93.70;;;3.78;62.04;99112.00;4997070;28;113214;-70
2023/01/26 09:09:12;;;;;;;;;;;3.30;93.70;;;3.76;61.54;99112.25;5004615;28;112825;-70
2023/01/26 09:11:39;;;;;;;;;;;3.30;93.60;;;3.74;61.93;99109.81;4988703;28;123030;-70
2023/01/26 09:14:06;;;;;;;;;;;3.30;93.50;;;3.73;61.44;99110.03;5029609;28;124279;-70
2023/01/26 09:16:32;;;;;;;;;;;4.70;94.00;;;3.71;61.60;99113.06;5028536;28;114520;-70
2023/01/26 09:18:58;;;;;;;;;;;3.30;93.40;;;3.71;61.15;99109.50;5003905;28;113531;-70
2023/01/26 09:21:25;;;;;;;;;;;3.30;93.40;;;3.68;61.46;99107.25;5011854;28;123689;-70
2023/01/26 09:23:51;;;;;;;;;;;3.20;93.20;;;3.64;61.21;99111.63;5027903;28;123906;-70
2023/01/26 09:26:17;;;;;;;;;;;3.10;93.30;;;3.62;61.55;99116.50;5017034;28;114400;-69
2023/01/26 09:28:44;;;;;;;;;;;3.10;93.30;;;3.58;61.46;99118.94;5023318;28;113856;-70
2023/01/26 09:31:11;;;;;;;;;;;3.10;93.30;;;3.57;61.70;99117.28;5004381;28;123751;-70
2023/01/26 09:33:37;;;;;;;;;;;3.10;93.30;;;3.59;61.19;99122.50;5012964;28;123876;-69
2023/01/26 09:36:05;;;;;;;;;;;3.10;93.30;;;3.59;61.33;99122.50;5023563;28;114568;-69
2023/01/26 09:38:31;;;;;;;;;;;3.10;93.30;;;3.57;61.25;99130.94;4994770;28;113371;-69
2023/01/26 09:41:04;;;;;;;;;;;3.10;93.20;;;3.56;61.36;99128.47;5030435;28;123918;-69
2023/01/26 09:43:34;;;;;;;;;;;3.10;93.20;;;3.53;61.37;99130.63;5031967;28;123292;-69
2023/01/26 09:46:06;;;;;;;;;;;3.10;93.20;;;3.52;60.85;99129.00;5015227;28;114659;-69
2023/01/26 09:48:56;;;;;;;;;;;3.10;93.10;;;3.49;61.01;99135.00;5032039;28;114567;-70
2023/01/26 09:51:37;;;;;;;;;;;3.10;93.10;;;3.46;61.39;99138.19;5008251;28;124833;-71
2023/01/26 09:54:22;;;;;;;;;;;2.90;93.10;;;3.42;60.85;99128.91;5013316;28;123719;-71
2023/01/26 09:56:49;;;;;;;;;;;2.90;93.20;;;3.43;61.46;99129.72;5024725;28;114601;-71
2023/01/26 09:59:33;;;;;;;;;;;2.90;93.20;;;3.48;61.49;99130.59;5027964;28;114000;-71
2023/01/26 10:02:12;;;;;;;;;;;3.00;93.20;;;3.48;61.07;99133.31;5009286;28;124001;-72
2023/01/26 10:04:42;;;;;;;;;;;2.90;93.20;;;3.47;61.16;99134.41;5032679;28;124297;-71
2023/01/26 10:07:10;;;;;;;;;;;3.00;93.20;;;3.49;61.17;99123.22;5010821;28;113648;-71
2023/01/26 10:09:37;;;;;;;;;;;3.00;93.20;;;3.49;61.28;99132.25;5011147;28;113352;-71
2023/01/26 10:12:19;;;;;;;;;;;3.00;93.20;;;3.48;61.08;99127.03;5013009;28;124124;-71
2023/01/26 10:14:59;;;;;;;;;;;3.00;93.10;;;3.48;60.97;99133.31;5011252;28;124127;-72
2023/01/26 10:17:34;;;;;;;;;;;3.00;93.10;;;3.45;60.83;99122.91;5012940;28;114754;-72
2023/01/26 10:20:05;;;;;;;;;;;3.00;93.10;;;3.42;60.63;99134.34;5013451;28;114080;-72
2023/01/26 10:22:51;;;;;;;;;;;3.00;92.90;;;3.41;60.73;99127.25;5017033;28;124698;-73
2023/01/26 10:25:29;;;;;;;;;;;2.90;92.90;;;3.40;60.76;99122.03;5011283;28;123938;-76
2023/01/26 10:27:56;;;;;;;;;;;2.90;92.90;;;3.35;60.71;99122.81;5007206;28;114396;-73
2023/01/26 10:30:23;;;;;;;;;;;2.90;92.80;;;3.37;60.77;99115.19;5017761;28;112127;-72
2023/01/26 10:32:51;;;;;;;;;;;2.90;92.80;;;3.40;60.65;99120.13;5018522;28;123581;-72
2023/01/26 10:35:23;;;;;;;;;;;3.00;92.80;;;3.41;60.32;99127.25;5016203;28;124439;-74
2023/01/26 10:37:51;;;;;;;;;;;2.90;92.70;;;3.39;60.63;99123.94;5013406;28;114656;-71
2023/01/26 10:40:20;;;;;;;;;;;3.00;92.70;;;3.39;60.41;99129.41;5015918;28;115130;-71
2023/01/26 10:42:57;;;;;;;;;;;3.00;92.60;;;3.41;60.38;99126.41;4999874;28;123646;-71
2023/01/26 10:45:31;;;;;;;;;;;2.90;92.60;;;3.42;60.18;99123.44;5014792;28;123469;-73
2023/01/26 10:48:02;;;;;;;;;;;3.00;92.60;;;3.45;60.04;99128.38;5010535;28;114492;-72
2023/01/26 10:50:30;;;;;;;;;;;3.00;92.50;;;3.45;60.44;99122.91;4996813;28;112499;-72
2023/01/26 10:52:59;;;;;;;;;;;3.00;92.50;;;3.46;59.81;99121.00;5007170;28;124575;-72
2023/01/26 10:55:26;;;;;;;;;;;3.00;92.50;;;3.46;60.09;99116.34;5009674;28;124387;-71
2023/01/26 10:57:52;;;;;;;;;;;3.00;92.50;;;3.49;60.22;99117.75;5008229;28;114430;-71
2023/01/26 11:00:27;;;;;;;;;;;3.00;92.40;;;3.51;60.03;99126.50;5010883;28;113775;-71
2023/01/26 11:03:00;;;;;;;;;;;3.00;92.40;;;3.50;59.94;99114.78;5008181;28;124498;-71
2023/01/26 11:05:27;;;;;;;;;;;3.10;92.40;;;3.51;59.58;99115.59;5006298;28;124040;-71
2023/01/26 11:07:58;;;;;;;;;;;3.00;92.30;;;3.50;59.68;99114.78;5005916;28;114831;-71
2023/01/26 11:10:32;;;;;;;;;;;3.00;92.20;;;3.52;60.03;99107.16;4997145;28;113791;-72
2023/01/26 11:13:11;;;;;;;;;;;3.10;92.20;;;3.54;59.76;99104.97;4990643;28;124807;-72
2023/01/26 11:15:40;;;;;;;;;;;3.10;92.20;;;3.54;59.28;99099.50;4983942;28;123904;-72
2023/01/26 11:18:27;;;;;;;;;;;3.10;92.20;;;3.60;59.30;99096.81;4988872;28;114416;-72
2023/01/26 11:21:16;;;;;;;;;;;3.10;92.20;;;3.58;59.79;99105.28;4989431;28;114020;-72
2023/01/26 11:23:48;;;;;;;;;;;3.10;92.20;;;3.56;59.32;99096.50;4985349;28;124286;-72
2023/01/26 11:26:46;;;;;;;;;;;3.10;92.20;;;3.53;59.30;99092.41;4986634;28;124213;-71
2023/01/26 11:29:36;;;;;;;;;;;3.00;92.20;;;3.50;59.81;99101.13;5004047;28;114163;-71
2023/01/26 11:32:26;;;;;;;;;;;3.00;92.30;;;3.45;59.49;99092.88;4990442;28;114710;-71
2023/01/26 11:35:01;;;;;;;;;;;2.90;92.30;;;3.42;59.87;99089.84;4988261;28;124208;-72
2023/01/26 11:37:52;;;;;;;;;;;2.90;92.40;;;3.36;60.15;99091.69;4978028;28;123639;-73
2023/01/26 11:40:31;;;;;;;;;;;2.90;92.30;;;3.34;59.72;99098.50;4987790;28;115040;-72
2023/01/26 11:43:31;;;;;;;;;;;2.80;92.40;;;3.34;60.12;99085.66;4981226;28;113608;-71
2023/01/26 11:46:20;;;;;;;;;;;2.80;92.50;;;3.35;60.25;99078.28;4990145;28;124351;-71
2023/01/26 11:48:52;;;;;;;;;;;2.90;92.50;;;3.34;60.09;99077.47;5003214;28;123931;-72
2023/01/26 11:51:58;;;;;;;;;;;2.90;92.50;;;3.28;60.11;99073.88;4989250;28;114445;-71
2023/01/26 11:55:11;;;;;;;;;;;2.80;92.50;;;3.17;60.32;99071.28;4971357;28;112704;-72
2023/01/26 11:57:57;;;;;;;;;;;2.60;92.50;;;3.04;60.37;99078.81;4930063;28;123353;-72
2023/01/26 12:00:43;;;;;;;;;;;2.50;92.50;;;3.05;60.70;99069.53;4930261;28;124584;-72
2023/01/26 12:03:24;;;;;;;;;;;2.50;92.60;;;3.06;60.88;99064.88;4957061;28;114409;-71
2023/01/26 12:05:57;;;;;;;;;;;2.60;92.70;;;3.02;60.64;99056.41;4969424;28;114078;-71
2023/01/26 12:08:28;;;;;;;;;;;2.50;92.50;;;3.04;60.59;99056.16;4967237;28;124181;-71
2023/01/26 12:11:27;;;;;;;;;;;2.50;92.60;;;3.07;61.03;99056.44;4952673;28;123930;-71
2023/01/26 12:14:16;;;;;;;;;;;2.60;92.70;;;3.18;60.47;99057.38;4979776;28;113989;-72
2023/01/26 12:17:01;;;;;;;;;;;2.70;92.60;;;3.21;60.57;99053.31;4970291;28;113902;-72
2023/01/26 12:19:39;;;;;;;;;;;2.70;92.60;;;3.25;60.06;99046.22;4969558;28;123966;-71
2023/01/26 12:22:30;;;;;;;;;;;2.70;92.50;;;3.24;60.07;99044.59;4953278;28;124420;-71